Saltburn-by-the-Sea, United Kingdom
Current Conditions -  °F | °C
As of 7:20 PM on Friday 31 Oct 2014 (Local Time) from EGNV Reporting Station
Few Clouds Few Clouds  
Wind Chill: 61°   Ceiling: Unl
Heat Index: 61°   Visibility: 6mi
Dew Point: 55°   Wind: 15mph
Humidity: 82%   Direction: 170°S
Pressure: 29.77"   Gusts: NA
Location:  54.58°N, 0.97°W
Report Text: EGNV 311920Z 17013KT 9999 FEW035 16/13 Q1008
Loading
Personal Weather Stations






























Interactive Weather Map
Tropical Storm Tracking
New forecast layout! Learn more

10-Day Weather Forecast

Advertisements
Track Severe Weather on mobile